createdAt,value
2022-12-16T00:01:28.507Z,4.13
2022-12-16T00:03:58.093Z,4.08
2022-12-16T00:06:29.620Z,3.97
2022-12-16T00:08:56.873Z,4.08
2022-12-16T00:11:23.848Z,4.09
2022-12-16T00:13:50.950Z,4.01
2022-12-16T00:16:21.103Z,4.06
2022-12-16T00:18:48.230Z,4.10
2022-12-16T00:21:15.392Z,4.08
2022-12-16T00:23:42.185Z,4.00
2022-12-16T00:26:09.361Z,3.98
2022-12-16T00:28:36.746Z,4.09
2022-12-16T00:31:04.484Z,4.08
2022-12-16T00:33:32.235Z,4.03
2022-12-16T00:35:59.267Z,4.02
2022-12-16T00:38:26.897Z,3.98
2022-12-16T00:40:53.820Z,3.96
2022-12-16T00:43:20.934Z,4.00
2022-12-16T00:45:48.837Z,4.02
2022-12-16T00:48:16.803Z,4.04
2022-12-16T00:50:55.238Z,4.01
2022-12-16T00:53:24.628Z,4.03
2022-12-16T00:55:53.019Z,4.06
2022-12-16T00:58:20.533Z,4.16
2022-12-16T01:00:47.376Z,4.02
2022-12-16T01:03:19.401Z,4.02
2022-12-16T01:05:48.153Z,3.93
2022-12-16T01:08:14.967Z,3.94
2022-12-16T01:10:41.735Z,3.94
2022-12-16T01:13:08.530Z,3.86
2022-12-16T01:15:37.587Z,3.85
2022-12-16T01:18:04.929Z,3.84
2022-12-16T01:20:34.362Z,3.85
2022-12-16T01:23:01.174Z,3.86
2022-12-16T01:25:28.339Z,3.90
2022-12-16T01:27:55.149Z,3.76
2022-12-16T01:30:22.205Z,3.82
2022-12-16T01:32:49.008Z,3.69
2022-12-16T01:35:44.202Z,3.72
2022-12-16T01:38:02.685Z,3.64
2022-12-16T01:40:30.163Z,3.60
2022-12-16T01:42:56.948Z,3.59
2022-12-16T01:45:35.950Z,3.63
2022-12-16T01:48:38.687Z,3.47
2022-12-16T01:51:16.214Z,3.46
2022-12-16T01:53:44.639Z,3.49
2022-12-16T01:56:15.543Z,3.39
2022-12-16T01:58:44.357Z,3.41
2022-12-16T02:01:11.192Z,3.47
2022-12-16T02:03:39.679Z,3.47
2022-12-16T02:06:07.143Z,3.36
2022-12-16T02:08:34.313Z,3.36
2022-12-16T02:11:11.958Z,3.31
2022-12-16T02:14:26.265Z,3.32
2022-12-16T02:17:22.358Z,3.20
2022-12-16T02:20:21.726Z,3.20
2022-12-16T02:23:33.371Z,3.23
2022-12-16T02:26:52.324Z,3.21
2022-12-16T02:29:37.113Z,3.18
2022-12-16T02:32:16.870Z,3.16
2022-12-16T02:35:15.199Z,3.16
2022-12-16T02:37:56.918Z,3.15
2022-12-16T02:40:44.249Z,3.03
2022-12-16T02:43:48.950Z,2.97
2022-12-16T02:46:17.618Z,2.87
2022-12-16T02:48:44.422Z,2.87
2022-12-16T02:51:11.471Z,2.85
2022-12-16T02:53:41.335Z,2.87
2022-12-16T02:56:27.485Z,2.88
2022-12-16T02:59:42.230Z,2.86
2022-12-16T03:02:25.835Z,2.77
2022-12-16T03:05:04.429Z,2.69
2022-12-16T03:07:36.435Z,2.71
2022-12-16T03:10:06.997Z,2.73
2022-12-16T03:12:38.199Z,2.77
2022-12-16T03:15:07.692Z,2.69
2022-12-16T03:17:37.235Z,2.76
2022-12-16T03:20:14.215Z,2.76
2022-12-16T03:22:44.691Z,2.83
2022-12-16T03:25:11.877Z,2.72
2022-12-16T03:28:07.645Z,2.63
2022-12-16T03:30:41.883Z,2.56
2022-12-16T03:33:17.536Z,2.47
2022-12-16T03:36:11.037Z,2.54
2022-12-16T03:38:39.517Z,2.59
2022-12-16T03:41:07.964Z,2.62
2022-12-16T03:43:35.320Z,2.65
2022-12-16T03:46:06.636Z,2.66
2022-12-16T03:48:34.034Z,2.67
2022-12-16T03:51:01.234Z,2.64
2022-12-16T03:53:28.101Z,2.57
2022-12-16T03:55:55.269Z,2.56
2022-12-16T03:58:22.049Z,2.49
2022-12-16T04:00:48.940Z,2.48
2022-12-16T04:03:15.905Z,2.43
2022-12-16T04:05:42.847Z,2.47
2022-12-16T04:08:09.645Z,2.47
2022-12-16T04:10:54.837Z,2.42
2022-12-16T04:13:40.185Z,2.53
2022-12-16T04:16:31.617Z,2.56
2022-12-16T04:19:17.317Z,2.48
2022-12-16T04:22:02.802Z,2.46
2022-12-16T04:24:30.640Z,2.51
2022-12-16T04:27:16.240Z,2.55
2022-12-16T04:30:02.452Z,2.52
2022-12-16T04:32:53.050Z,2.55
2022-12-16T04:35:38.603Z,2.54
2022-12-16T04:38:24.202Z,2.56
2022-12-16T04:41:09.757Z,2.51
2022-12-16T04:43:55.314Z,2.58
2022-12-16T04:46:40.653Z,2.57
2022-12-16T04:49:26.118Z,2.54
2022-12-16T04:52:12.041Z,2.53
2022-12-16T04:54:57.402Z,2.47
2022-12-16T04:57:42.887Z,2.47
2022-12-16T05:00:29.390Z,2.47
2022-12-16T05:03:15.971Z,2.33
2022-12-16T05:06:01.384Z,2.24
2022-12-16T05:08:46.890Z,2.28
2022-12-16T05:11:32.410Z,2.31
2022-12-16T05:14:17.671Z,2.25
2022-12-16T05:17:03.133Z,2.28
2022-12-16T05:19:48.462Z,2.35
2022-12-16T05:22:33.899Z,2.21
2022-12-16T05:25:19.288Z,2.22
2022-12-16T05:28:10.181Z,2.17
2022-12-16T05:30:55.826Z,2.22
2022-12-16T05:33:41.995Z,2.17
2022-12-16T05:36:27.856Z,2.18
2022-12-16T05:39:13.320Z,2.28
2022-12-16T05:41:58.662Z,2.27
2022-12-16T05:44:44.221Z,2.19
2022-12-16T05:47:29.873Z,2.26
2022-12-16T05:50:15.281Z,2.21
2022-12-16T05:53:07.587Z,2.15
2022-12-16T05:55:53.090Z,2.12
2022-12-16T05:58:38.606Z,2.14
2022-12-16T06:01:24.526Z,2.14
2022-12-16T06:04:15.541Z,2.02
2022-12-16T06:07:03.180Z,2.06
2022-12-16T06:09:53.110Z,1.89
2022-12-16T06:12:42.204Z,1.96
2022-12-16T06:15:28.679Z,1.98
2022-12-16T06:18:14.587Z,2.01
2022-12-16T06:20:59.941Z,2.07
2022-12-16T06:23:45.554Z,1.89
2022-12-16T06:26:31.084Z,2.06
2022-12-16T06:29:16.380Z,2.00
2022-12-16T06:32:02.045Z,2.05
2022-12-16T06:34:47.486Z,2.01
2022-12-16T06:37:32.729Z,1.99
2022-12-16T06:40:31.825Z,2.03
2022-12-16T06:43:17.252Z,2.13
2022-12-16T06:46:03.013Z,2.09
2022-12-16T06:48:48.486Z,2.10
2022-12-16T06:51:34.030Z,2.14
2022-12-16T06:54:19.440Z,2.06
2022-12-16T06:57:04.789Z,2.10
2022-12-16T06:59:50.205Z,2.13
2022-12-16T07:02:35.722Z,2.13
2022-12-16T07:05:21.877Z,2.15
2022-12-16T07:08:09.536Z,2.15
2022-12-16T07:10:59.513Z,2.12
2022-12-16T07:13:54.699Z,2.14
2022-12-16T07:16:40.204Z,2.14
2022-12-16T07:19:25.506Z,2.23
2022-12-16T07:22:10.890Z,2.27
2022-12-16T07:24:56.215Z,2.22
2022-12-16T07:27:41.514Z,2.25
2022-12-16T07:30:27.290Z,2.34
2022-12-16T07:33:17.221Z,2.37
2022-12-16T07:36:02.693Z,2.30
2022-12-16T07:38:48.030Z,2.38
2022-12-16T07:41:33.526Z,2.39
2022-12-16T07:44:18.840Z,2.53
2022-12-16T07:47:04.245Z,2.50
2022-12-16T07:49:49.559Z,2.49
2022-12-16T07:52:35.036Z,2.52
2022-12-16T07:55:20.577Z,2.61
2022-12-16T07:58:11.500Z,2.69
2022-12-16T08:00:57.030Z,2.79
2022-12-16T08:04:02.310Z,2.84
2022-12-16T08:06:48.046Z,2.70
2022-12-16T08:09:33.051Z,2.61
2022-12-16T08:12:18.417Z,2.45
2022-12-16T08:15:03.715Z,2.52
2022-12-16T08:17:49.315Z,2.59
2022-12-16T08:20:34.586Z,2.79
2022-12-16T08:23:19.741Z,2.90
2022-12-16T08:26:04.993Z,2.92
2022-12-16T08:28:50.339Z,2.99
2022-12-16T08:31:35.701Z,2.80
2022-12-16T08:34:21.286Z,2.90
2022-12-16T08:37:06.360Z,2.87
2022-12-16T08:40:17.703Z,2.82
2022-12-16T08:42:57.476Z,2.84
2022-12-16T08:45:43.437Z,2.88
2022-12-16T08:48:29.678Z,2.73
2022-12-16T08:51:20.068Z,2.31
2022-12-16T08:54:05.489Z,2.53
2022-12-16T08:56:51.471Z,2.72
2022-12-16T08:59:36.834Z,2.49
2022-12-16T09:02:22.979Z,2.58
2022-12-16T09:05:08.919Z,2.77
2022-12-16T09:07:54.391Z,2.95
2022-12-16T09:10:40.989Z,3.11
2022-12-16T09:13:30.398Z,3.09
2022-12-16T09:16:19.510Z,2.99
2022-12-16T09:19:05.619Z,3.15
2022-12-16T09:21:52.001Z,3.21
2022-12-16T09:24:37.377Z,3.17
2022-12-16T09:27:22.888Z,3.08
2022-12-16T09:30:08.441Z,3.03
2022-12-16T09:32:54.215Z,2.84
2022-12-16T09:35:39.559Z,3.03
2022-12-16T09:38:25.096Z,3.09
2022-12-16T09:41:10.601Z,3.18
2022-12-16T09:44:20.201Z,3.36
2022-12-16T09:47:44.468Z,3.29
2022-12-16T09:50:43.999Z,3.20
2022-12-16T09:53:33.695Z,3.26
2022-12-16T09:56:24.692Z,3.25
2022-12-16T09:59:19.513Z,3.13
2022-12-16T10:02:05.364Z,3.22
2022-12-16T10:04:51.111Z,3.25
2022-12-16T10:07:41.532Z,2.96
2022-12-16T10:11:01.527Z,3.08
2022-12-16T10:14:14.484Z,3.14
2022-12-16T10:17:45.861Z,3.35
2022-12-16T10:20:57.039Z,3.38
2022-12-16T10:24:03.504Z,3.56
2022-12-16T10:27:12.319Z,3.52
2022-12-16T10:30:02.147Z,3.14
2022-12-16T10:33:01.753Z,3.01
2022-12-16T10:35:55.637Z,3.00
2022-12-16T10:38:56.119Z,3.31
2022-12-16T10:41:52.541Z,3.10
2022-12-16T10:45:12.504Z,2.89
2022-12-16T10:47:57.896Z,3.30
2022-12-16T10:50:43.566Z,3.02
2022-12-16T10:53:50.905Z,3.05
2022-12-16T10:57:10.479Z,3.27
2022-12-16T10:59:59.286Z,3.02
2022-12-16T11:02:47.559Z,3.19
2022-12-16T11:05:52.054Z,3.14
2022-12-16T11:08:51.397Z,3.26
2022-12-16T11:11:42.743Z,3.25
2022-12-16T11:15:05.829Z,3.57
2022-12-16T11:17:48.600Z,3.33
2022-12-16T11:20:40.750Z,3.43
2022-12-16T11:23:38.844Z,3.54
2022-12-16T11:26:38.547Z,3.62
2022-12-16T11:29:35.133Z,3.72
2022-12-16T11:32:37.607Z,3.68
2022-12-16T11:35:31.153Z,3.52
2022-12-16T11:38:17.577Z,3.55
2022-12-16T11:41:02.615Z,3.47
2022-12-16T11:43:48.865Z,3.46
2022-12-16T11:46:55.918Z,3.77
2022-12-16T11:49:52.031Z,3.72
2022-12-16T11:52:40.489Z,3.76
2022-12-16T11:59:06.730Z,3.45
2022-12-16T12:01:59.881Z,3.66
2022-12-16T12:04:45.323Z,3.88
2022-12-16T12:07:55.455Z,3.62
2022-12-16T12:11:04.095Z,3.54
2022-12-16T12:14:37.441Z,3.64
2022-12-16T12:17:45.039Z,3.79
2022-12-16T12:21:18.246Z,3.47
2022-12-16T12:24:44.858Z,3.78
2022-12-16T12:27:49.708Z,3.45
2022-12-16T12:30:38.776Z,3.32
2022-12-16T12:34:09.617Z,3.38
2022-12-16T12:37:08.102Z,3.37
2022-12-16T12:40:13.022Z,3.44
2022-12-16T12:43:06.778Z,3.44
2022-12-16T12:46:16.333Z,3.66
2022-12-16T12:49:35.192Z,3.63
2022-12-16T12:52:37.927Z,3.19
2022-12-16T12:55:44.348Z,3.26
2022-12-16T12:58:31.723Z,3.35
2022-12-16T13:01:19.157Z,3.40
2022-12-16T13:04:18.976Z,3.63
2022-12-16T13:07:04.998Z,3.31
2022-12-16T13:09:57.917Z,3.38
2022-12-16T13:12:46.357Z,3.49
2022-12-16T13:15:58.136Z,3.54
2022-12-16T13:18:48.499Z,3.50
2022-12-16T13:22:02.380Z,3.09
2022-12-16T13:25:10.173Z,2.95
2022-12-16T13:28:34.135Z,3.05
2022-12-16T13:31:25.942Z,2.97
2022-12-16T13:34:13.957Z,2.95
2022-12-16T13:37:00.500Z,2.99
2022-12-16T13:39:48.930Z,2.87
2022-12-16T13:42:58.835Z,2.50
2022-12-16T13:45:57.611Z,2.64
2022-12-16T13:48:59.443Z,2.42
2022-12-16T13:51:56.218Z,2.41
2022-12-16T13:54:51.923Z,2.48
2022-12-16T13:57:41.010Z,2.28
2022-12-16T14:00:42.796Z,2.35
2022-12-16T14:04:06.522Z,2.54
2022-12-16T14:06:56.799Z,2.59
2022-12-16T14:09:57.209Z,2.56
2022-12-16T14:13:16.133Z,2.54
2022-12-16T14:16:58.859Z,2.24
2022-12-16T14:20:13.439Z,2.41
2022-12-16T14:23:39.290Z,2.30
2022-12-16T14:26:29.913Z,2.32
2022-12-16T14:29:15.028Z,2.19
2022-12-16T14:32:02.657Z,2.17
2022-12-16T14:34:51.985Z,2.27
2022-12-16T14:37:53.776Z,2.27
2022-12-16T14:40:49.233Z,2.28
2022-12-16T14:43:43.610Z,2.33
2022-12-16T14:46:49.734Z,2.50
2022-12-16T14:49:41.616Z,2.41
2022-12-16T14:52:44.005Z,2.20
2022-12-16T14:55:33.335Z,2.30
2022-12-16T14:58:41.124Z,2.33
2022-12-16T15:01:43.907Z,2.22
2022-12-16T15:04:39.910Z,2.28
2022-12-16T15:07:47.869Z,2.19
2022-12-16T15:10:34.221Z,2.04
2022-12-16T15:13:19.862Z,1.89
2022-12-16T15:16:07.352Z,1.59
2022-12-16T15:19:04.540Z,1.80
2022-12-16T15:21:53.296Z,1.65
2022-12-16T15:24:43.262Z,1.61
2022-12-16T15:27:32.549Z,1.68
2022-12-16T15:30:17.977Z,1.68
2022-12-16T15:33:12.245Z,1.63
2022-12-16T15:35:57.897Z,1.62
2022-12-16T15:38:50.357Z,1.59
2022-12-16T15:41:49.638Z,1.58
2022-12-16T15:44:43.946Z,1.61
2022-12-16T15:47:54.661Z,1.39
2022-12-16T15:50:46.590Z,1.47
2022-12-16T15:53:54.721Z,1.34
2022-12-16T15:56:44.417Z,1.46
2022-12-16T15:59:56.899Z,1.37
2022-12-16T16:02:48.723Z,1.39
2022-12-16T16:05:41.248Z,1.42
2022-12-16T16:08:29.178Z,1.41
2022-12-16T16:11:14.665Z,1.46
2022-12-16T16:14:05.996Z,1.49
2022-12-16T16:16:54.915Z,1.55
2022-12-16T16:19:43.704Z,1.59
2022-12-16T16:22:43.425Z,1.46
2022-12-16T16:25:31.034Z,1.52
2022-12-16T16:28:16.386Z,1.45
2022-12-16T16:31:01.932Z,1.63
2022-12-16T16:33:57.740Z,1.71
2022-12-16T16:36:43.188Z,1.72
2022-12-16T16:39:28.669Z,1.80
2022-12-16T16:42:14.296Z,1.78
2022-12-16T16:44:59.751Z,1.78
2022-12-16T16:47:45.065Z,1.59
2022-12-16T16:50:34.124Z,1.68
2022-12-16T16:53:19.648Z,1.66
2022-12-16T16:56:05.107Z,1.68
2022-12-16T16:58:52.958Z,1.72
2022-12-16T17:01:38.960Z,1.69
2022-12-16T17:04:24.268Z,1.77
2022-12-16T17:07:09.633Z,1.56
2022-12-16T17:09:54.921Z,1.66
2022-12-16T17:12:45.535Z,1.77
2022-12-16T17:15:44.044Z,1.72
2022-12-16T17:18:29.446Z,1.73
2022-12-16T17:21:14.840Z,1.76
2022-12-16T17:24:00.222Z,1.85
2022-12-16T17:26:45.699Z,1.81
2022-12-16T17:29:43.306Z,1.90
2022-12-16T17:32:29.814Z,1.73
2022-12-16T17:35:15.887Z,1.95
2022-12-16T17:38:01.640Z,1.92
2022-12-16T17:40:47.122Z,1.96
2022-12-16T17:43:33.075Z,1.97
2022-12-16T17:46:24.839Z,1.96
2022-12-16T17:49:12.222Z,1.98
2022-12-16T17:51:57.732Z,2.01
2022-12-16T17:54:43.028Z,1.97
2022-12-16T17:57:29.229Z,1.98
2022-12-16T18:00:14.738Z,1.96
2022-12-16T18:03:00.851Z,1.93
2022-12-16T18:05:46.741Z,1.96
2022-12-16T18:08:32.690Z,1.90
2022-12-16T18:11:18.132Z,1.93
2022-12-16T18:14:03.645Z,1.94
2022-12-16T18:16:49.493Z,1.93
2022-12-16T18:19:36.186Z,2.00
2022-12-16T18:22:22.584Z,2.07
2022-12-16T18:25:08.069Z,2.07
2022-12-16T18:27:55.579Z,2.12
2022-12-16T18:30:40.963Z,2.06
2022-12-16T18:33:27.784Z,1.86
2022-12-16T18:36:13.622Z,1.95
2022-12-16T18:38:58.980Z,1.95
2022-12-16T18:41:44.809Z,1.98
2022-12-16T18:44:33.316Z,1.91
2022-12-16T18:47:19.312Z,1.88
2022-12-16T18:50:05.072Z,1.86
2022-12-16T18:52:50.437Z,1.99
2022-12-16T18:55:35.918Z,1.92
2022-12-16T18:58:49.830Z,1.88
2022-12-16T19:01:30.002Z,1.89
2022-12-16T19:04:16.429Z,1.70
2022-12-16T19:07:02.032Z,1.67
2022-12-16T19:09:47.472Z,1.70
2022-12-16T19:12:32.953Z,1.85
2022-12-16T19:15:18.402Z,1.81
2022-12-16T19:18:03.748Z,1.80
2022-12-16T19:20:49.058Z,1.81
2022-12-16T19:23:34.981Z,1.69
2022-12-16T19:26:20.427Z,1.81
2022-12-16T19:29:05.890Z,1.88
2022-12-16T19:31:51.883Z,1.74
2022-12-16T19:34:37.205Z,1.84
2022-12-16T19:37:22.727Z,1.92
2022-12-16T19:40:08.186Z,1.90
2022-12-16T19:42:54.607Z,1.92
2022-12-16T19:45:41.170Z,1.92
2022-12-16T19:48:26.573Z,1.66
2022-12-16T19:51:19.847Z,1.77
2022-12-16T19:54:06.279Z,1.78
2022-12-16T19:56:52.513Z,1.80
2022-12-16T19:59:40.611Z,1.61
2022-12-16T20:02:29.841Z,1.82
2022-12-16T20:05:15.537Z,1.82
2022-12-16T20:08:00.945Z,1.70
2022-12-16T20:10:46.261Z,1.83
2022-12-16T20:13:32.335Z,1.81
2022-12-16T20:16:26.352Z,1.81
2022-12-16T20:19:12.291Z,1.82
2022-12-16T20:22:00.693Z,1.72
2022-12-16T20:24:49.844Z,1.84
2022-12-16T20:27:35.107Z,1.80
2022-12-16T20:30:20.583Z,1.77
2022-12-16T20:33:06.445Z,1.81
2022-12-16T20:35:51.699Z,1.66
2022-12-16T20:38:37.132Z,1.71
2022-12-16T20:41:23.551Z,1.70
2022-12-16T20:44:09.682Z,1.71
2022-12-16T20:46:56.537Z,1.70
2022-12-16T20:49:42.396Z,1.56
2022-12-16T20:52:28.461Z,1.66
2022-12-16T20:55:14.374Z,1.72
2022-12-16T20:57:59.593Z,1.63
2022-12-16T21:00:45.085Z,1.61
2022-12-16T21:03:30.441Z,1.55
2022-12-16T21:06:16.016Z,1.60
2022-12-16T21:09:01.589Z,1.55
2022-12-16T21:11:47.506Z,1.49
2022-12-16T21:14:32.928Z,1.55
2022-12-16T21:17:18.010Z,1.61
2022-12-16T21:20:03.418Z,1.35
2022-12-16T21:22:48.478Z,1.48
2022-12-16T21:25:34.069Z,1.43
2022-12-16T21:28:19.610Z,1.48
2022-12-16T21:31:06.996Z,1.44
2022-12-16T21:33:52.510Z,1.43
2022-12-16T21:36:38.108Z,1.41
2022-12-16T21:39:23.554Z,1.36
2022-12-16T21:42:08.969Z,1.39
2022-12-16T21:44:56.325Z,1.41
2022-12-16T21:47:42.281Z,1.40
2022-12-16T21:50:28.426Z,1.35
2022-12-16T21:53:13.710Z,1.35
2022-12-16T21:55:59.220Z,1.34
2022-12-16T21:58:44.545Z,1.36
2022-12-16T22:01:30.033Z,1.38
2022-12-16T22:04:15.478Z,1.38
2022-12-16T22:07:00.748Z,1.38
2022-12-16T22:09:46.119Z,1.33
2022-12-16T22:12:31.130Z,1.29
2022-12-16T22:15:16.417Z,1.33
2022-12-16T22:18:01.995Z,1.18
2022-12-16T22:20:47.499Z,1.20
2022-12-16T22:23:33.017Z,1.31
2022-12-16T22:26:20.057Z,1.24
2022-12-16T22:29:06.085Z,1.11
2022-12-16T22:31:51.437Z,1.21
2022-12-16T22:34:37.286Z,1.14
2022-12-16T22:37:22.715Z,1.20
2022-12-16T22:40:07.873Z,1.24
2022-12-16T22:42:53.325Z,1.10
2022-12-16T22:45:41.922Z,1.05
2022-12-16T22:48:29.919Z,0.85
2022-12-16T22:51:15.306Z,0.97
2022-12-16T22:54:00.968Z,0.92
2022-12-16T22:56:46.292Z,1.02
2022-12-16T22:59:31.738Z,0.97
2022-12-16T23:02:17.077Z,0.96
2022-12-16T23:05:02.598Z,0.86
2022-12-16T23:07:47.785Z,0.89
2022-12-16T23:10:33.243Z,0.93
2022-12-16T23:13:18.669Z,0.97
2022-12-16T23:16:06.672Z,0.90
2022-12-16T23:18:52.080Z,0.91
2022-12-16T23:21:38.547Z,0.87
2022-12-16T23:24:24.395Z,0.88
2022-12-16T23:27:09.959Z,0.87
2022-12-16T23:32:30.682Z,0.88
2022-12-16T23:33:00.759Z,0.87
2022-12-16T23:35:46.149Z,0.74
2022-12-16T23:38:31.673Z,0.69
2022-12-16T23:41:17.740Z,0.74
2022-12-16T23:44:03.971Z,0.78
2022-12-16T23:46:49.356Z,0.81
2022-12-16T23:49:34.645Z,0.76
2022-12-16T23:52:19.950Z,0.73
2022-12-16T23:55:05.336Z,0.76
2022-12-16T23:57:50.811Z,0.69
